createdAt,value
2023-04-15T00:04:51.807Z,32.90
2023-04-15T00:10:13.488Z,32.64
2023-04-15T00:15:16.648Z,33.10
2023-04-15T00:20:19.548Z,32.95
2023-04-15T00:25:22.918Z,33.33
2023-04-15T00:30:26.806Z,33.41
2023-04-15T00:35:32.837Z,33.74
2023-04-15T00:40:36.060Z,33.59
2023-04-15T00:45:38.976Z,33.60
2023-04-15T00:50:42.310Z,33.51
2023-04-15T00:55:45.546Z,33.38
2023-04-15T01:00:49.514Z,33.50
2023-04-15T01:05:58.498Z,33.78
2023-04-15T01:11:03.884Z,33.77
2023-04-15T01:16:08.930Z,33.54
2023-04-15T01:21:12.847Z,34.14
2023-04-15T01:26:17.656Z,34.19
2023-04-15T01:31:22.386Z,34.15
2023-04-15T01:36:25.415Z,34.12
2023-04-15T01:41:29.913Z,34.00
2023-04-15T01:46:34.667Z,34.50
2023-04-15T01:51:38.841Z,34.40
2023-04-15T01:56:43.527Z,34.44
2023-04-15T02:01:47.729Z,34.20
2023-04-15T02:06:51.903Z,34.45
2023-04-15T02:11:58.888Z,34.61
2023-04-15T02:17:07.490Z,34.69
2023-04-15T02:22:18.447Z,34.39
2023-04-15T02:27:24.289Z,34.54
2023-04-15T02:32:47.330Z,34.31
2023-04-15T02:37:52.128Z,34.56
2023-04-15T02:42:56.349Z,34.42
2023-04-15T02:48:06.544Z,34.37
2023-04-15T02:53:11.286Z,34.34
2023-04-15T02:58:15.500Z,34.35
2023-04-15T03:03:47.397Z,34.43
2023-04-15T03:08:51.852Z,34.56
2023-04-15T03:13:56.310Z,34.12
2023-04-15T03:19:06.801Z,34.34
2023-04-15T03:24:11.796Z,33.86
2023-04-15T03:29:16.610Z,34.13
2023-04-15T03:34:21.005Z,34.07
2023-04-15T03:39:25.330Z,33.81
2023-04-15T03:44:48.072Z,33.35
2023-04-15T03:49:52.263Z,33.86
2023-04-15T03:54:56.405Z,33.46
2023-04-15T04:00:00.584Z,33.31
2023-04-15T04:05:04.954Z,33.15
2023-04-15T04:10:09.488Z,33.14
2023-04-15T04:15:13.694Z,33.01
2023-04-15T04:20:17.860Z,32.62
2023-04-15T04:25:22.194Z,32.23
2023-04-15T04:30:26.720Z,32.29
2023-04-15T04:35:31.038Z,32.26
2023-04-15T04:40:35.264Z,32.09
2023-04-15T04:45:39.395Z,31.56
2023-04-15T04:50:44.810Z,31.03
2023-04-15T04:55:48.951Z,30.65
2023-04-15T05:00:53.300Z,30.86
2023-04-15T05:05:57.485Z,30.47
2023-04-15T05:11:01.768Z,30.12
2023-04-15T05:16:06.671Z,30.14
2023-04-15T05:21:10.661Z,29.82
2023-04-15T05:26:33.081Z,29.70
2023-04-15T05:31:37.782Z,29.59
2023-04-15T05:36:41.975Z,29.28
2023-04-15T05:41:46.894Z,29.15
2023-04-15T05:46:51.045Z,28.67
2023-04-15T05:51:55.198Z,28.54
2023-04-15T05:56:59.523Z,28.12
2023-04-15T06:02:03.835Z,27.31
2023-04-15T06:07:08.125Z,27.12
2023-04-15T06:12:13.494Z,26.33
2023-04-15T06:17:19.217Z,26.21
2023-04-15T06:22:24.000Z,26.36
2023-04-15T06:27:28.131Z,25.23
2023-04-15T06:32:33.317Z,24.70
2023-04-15T06:37:37.463Z,24.44
2023-04-15T06:42:42.193Z,24.05
2023-04-15T06:47:46.351Z,23.98
2023-04-15T06:52:51.004Z,23.76
2023-04-15T06:57:55.036Z,22.79
2023-04-15T07:02:59.383Z,22.75
2023-04-15T07:08:04.092Z,22.73
2023-04-15T07:13:09.118Z,23.19
2023-04-15T07:18:13.874Z,23.08
2023-04-15T07:23:18.611Z,22.65
2023-04-15T07:28:22.913Z,22.33
2023-04-15T07:33:27.369Z,21.97
2023-04-15T07:38:31.855Z,21.81
2023-04-15T07:43:36.141Z,21.21
2023-04-15T07:48:40.469Z,20.77
2023-04-15T07:53:44.854Z,21.00
2023-04-15T07:58:48.948Z,20.38
2023-04-15T08:03:53.506Z,20.78
2023-04-15T08:08:57.853Z,20.47
2023-04-15T08:14:02.174Z,19.24
2023-04-15T08:19:06.306Z,19.35
2023-04-15T08:24:11.710Z,19.11
2023-04-15T08:29:16.342Z,19.50
2023-04-15T08:34:20.950Z,18.49
2023-04-15T08:39:25.242Z,18.46
2023-04-15T08:44:32.304Z,18.19
2023-04-15T08:49:41.582Z,18.26
2023-04-15T08:54:46.117Z,17.68
2023-04-15T08:59:50.704Z,17.75
2023-04-15T09:04:55.217Z,17.31
2023-04-15T09:10:18.132Z,17.64
2023-04-15T09:15:22.970Z,17.45
2023-04-15T09:20:27.573Z,17.80
2023-04-15T09:25:34.845Z,17.17
2023-04-15T09:30:39.289Z,17.00
2023-04-15T09:35:58.260Z,17.42
2023-04-15T09:41:02.941Z,18.07
2023-04-15T09:46:07.205Z,17.32
2023-04-15T09:51:11.450Z,16.48
2023-04-15T09:56:15.651Z,17.12
2023-04-15T10:01:19.890Z,16.53
2023-04-15T10:06:27.089Z,16.96
2023-04-15T10:11:33.092Z,16.54
2023-04-15T10:16:43.520Z,17.02
2023-04-15T10:21:47.833Z,16.56
2023-04-15T10:26:52.973Z,16.68
2023-04-15T10:31:58.855Z,17.03
2023-04-15T10:37:04.597Z,16.66
2023-04-15T10:42:12.741Z,16.43
2023-04-15T10:47:19.684Z,16.57
2023-04-15T10:52:26.293Z,16.66
2023-04-15T10:57:38.228Z,16.53
2023-04-15T11:02:57.393Z,16.23
2023-04-15T11:08:01.660Z,16.71
2023-04-15T11:13:16.834Z,16.59
2023-04-15T11:18:30.790Z,16.35
2023-04-15T11:23:40.378Z,16.81
2023-04-15T11:28:46.484Z,16.98
2023-04-15T11:34:02.688Z,16.97
2023-04-15T11:39:07.893Z,16.57
2023-04-15T11:44:19.061Z,16.10
2023-04-15T11:49:28.050Z,15.93
2023-04-15T11:54:31.009Z,16.07
2023-04-15T11:59:45.803Z,16.44
2023-04-15T12:04:49.237Z,16.96
2023-04-15T12:09:56.968Z,16.75
2023-04-15T12:15:00.265Z,17.04
2023-04-15T12:20:03.620Z,17.09
2023-04-15T12:25:07.388Z,16.57
2023-04-15T12:30:11.878Z,15.94
2023-04-15T12:35:14.927Z,16.47
2023-04-15T12:40:18.166Z,16.27
2023-04-15T12:45:21.607Z,15.64
2023-04-15T12:50:24.290Z,16.03
2023-04-15T12:55:27.311Z,16.37
2023-04-15T13:00:30.260Z,16.15
2023-04-15T13:05:33.199Z,16.26
2023-04-15T13:10:39.328Z,15.83
2023-04-15T13:15:45.883Z,15.79
2023-04-15T13:20:48.914Z,15.89
2023-04-15T13:25:52.328Z,15.90
2023-04-15T13:30:55.005Z,15.38
2023-04-15T13:35:57.834Z,15.42
2023-04-15T13:41:01.173Z,15.82
2023-04-15T13:46:04.220Z,15.66
2023-04-15T13:51:07.310Z,15.62
2023-04-15T13:56:10.513Z,14.91
2023-04-15T14:01:15.043Z,15.39
2023-04-15T14:06:18.104Z,15.17
2023-04-15T14:11:21.178Z,15.27
2023-04-15T14:16:24.146Z,15.46
2023-04-15T14:21:28.433Z,15.49
2023-04-15T14:26:31.361Z,15.64
2023-04-15T14:31:34.367Z,15.56
2023-04-15T14:36:40.439Z,15.88
2023-04-15T14:41:43.910Z,15.49
2023-04-15T14:46:47.002Z,15.31
2023-04-15T14:51:49.987Z,15.18
2023-04-15T14:56:52.766Z,15.15
2023-04-15T15:01:55.799Z,15.42
2023-04-15T15:06:58.979Z,15.46
2023-04-15T15:12:02.289Z,15.48
2023-04-15T15:17:05.186Z,15.92
2023-04-15T15:22:08.119Z,17.00
2023-04-15T15:27:11.293Z,17.54
2023-04-15T15:32:14.170Z,18.00
2023-04-15T15:37:17.170Z,18.44
2023-04-15T15:42:20.470Z,18.66
2023-04-15T15:47:23.588Z,19.18
2023-04-15T15:52:26.729Z,19.58
2023-04-15T15:57:29.668Z,19.62
2023-04-15T16:02:59.922Z,19.79
2023-04-15T16:07:56.068Z,19.96
2023-04-15T16:12:59.083Z,20.39
2023-04-15T16:18:02.269Z,20.47
2023-04-15T16:23:13.672Z,20.68
2023-04-15T16:28:26.402Z,20.88
2023-04-15T16:33:30.288Z,20.97
2023-04-15T16:38:33.275Z,21.33
2023-04-15T16:43:36.627Z,21.52
2023-04-15T16:48:39.547Z,21.47
2023-04-15T16:53:42.564Z,21.76
2023-04-15T16:58:45.780Z,22.20
2023-04-15T17:03:49.506Z,21.79
2023-04-15T17:08:52.645Z,21.94
2023-04-15T17:13:55.634Z,21.97
2023-04-15T17:18:59.475Z,22.29
2023-04-15T17:24:06.288Z,22.46
2023-04-15T17:29:17.763Z,22.44
2023-04-15T17:34:26.185Z,22.49
2023-04-15T17:40:09.669Z,22.69
2023-04-15T17:45:33.316Z,22.67
2023-04-15T17:50:56.269Z,22.81
2023-04-15T17:56:19.311Z,22.98
2023-04-15T18:01:45.759Z,23.32
2023-04-15T18:07:09.048Z,23.23
2023-04-15T18:12:31.957Z,23.27
2023-04-15T18:17:54.964Z,23.42
2023-04-15T18:22:57.984Z,23.47
2023-04-15T18:28:00.946Z,23.51
2023-04-15T18:33:04.108Z,23.49
2023-04-15T18:38:08.321Z,23.89
2023-04-15T18:43:11.429Z,23.87
2023-04-15T18:48:16.159Z,24.14
2023-04-15T18:53:19.024Z,24.08
2023-04-15T18:58:22.173Z,24.22
2023-04-15T19:03:25.120Z,24.21
2023-04-15T19:08:29.682Z,24.70
2023-04-15T19:13:32.663Z,24.67
2023-04-15T19:18:35.709Z,24.57
2023-04-15T19:23:38.960Z,24.83
2023-04-15T19:28:42.064Z,24.93
2023-04-15T19:33:45.083Z,25.12
2023-04-15T19:38:48.875Z,25.92
2023-04-15T19:43:51.772Z,25.86
2023-04-15T19:48:55.591Z,25.99
2023-04-15T19:53:59.789Z,26.31
2023-04-15T19:59:02.872Z,26.32
2023-04-15T20:04:24.375Z,26.90
2023-04-15T20:09:27.444Z,26.88
2023-04-15T20:14:30.579Z,27.28
2023-04-15T20:19:33.563Z,27.20
2023-04-15T20:24:36.481Z,27.55
2023-04-15T20:29:39.486Z,27.73
2023-04-15T20:34:42.496Z,27.66
2023-04-15T20:39:45.453Z,27.57
2023-04-15T20:44:48.319Z,28.38
2023-04-15T20:49:51.560Z,29.01
2023-04-15T20:54:54.519Z,28.95
2023-04-15T20:59:57.530Z,28.80
2023-04-15T21:05:00.602Z,28.86
2023-04-15T21:10:03.694Z,28.68
2023-04-15T21:15:09.342Z,29.51
2023-04-15T21:20:12.816Z,29.45
2023-04-15T21:25:15.685Z,29.00
2023-04-15T21:30:18.586Z,29.35
2023-04-15T21:35:21.751Z,29.52
2023-04-15T21:40:43.004Z,29.29
2023-04-15T21:46:20.872Z,30.39
2023-04-15T21:51:09.166Z,30.33
2023-04-15T21:56:12.269Z,30.91
2023-04-15T22:01:15.289Z,30.95
2023-04-15T22:06:18.684Z,30.16
2023-04-15T22:11:28.652Z,30.20
2023-04-15T22:16:31.911Z,30.23
2023-04-15T22:21:35.088Z,30.46
2023-04-15T22:26:39.118Z,30.65
2023-04-15T22:31:42.156Z,31.40
2023-04-15T22:36:45.063Z,31.97
2023-04-15T22:41:47.942Z,32.11
2023-04-15T22:46:52.092Z,31.95
2023-04-15T22:51:55.216Z,31.83
2023-04-15T22:56:58.289Z,32.13
2023-04-15T23:02:01.442Z,32.12
2023-04-15T23:07:04.495Z,31.91
2023-04-15T23:12:07.959Z,31.87
2023-04-15T23:17:11.078Z,31.69
2023-04-15T23:22:14.171Z,31.83
2023-04-15T23:27:19.428Z,31.88
2023-04-15T23:32:22.320Z,31.79
2023-04-15T23:37:25.162Z,31.88
2023-04-15T23:42:28.193Z,32.26
2023-04-15T23:47:31.183Z,33.04
2023-04-15T23:52:34.390Z,33.75
2023-04-15T23:57:37.214Z,33.16
